AUA18Y LOWW-EDDM
Flight info
| Callsign | AUA18Y |
|---|---|
| Flight time | N/A |
| Altitude | 28000 |
| Route | SOVIL DCT SITNI DCT BAGSI DCT MATIG DCT AMADI Q113 NAPSA NAPSA1B |
| Aircraft | E195/M-SDE3GILORVW/S |
Departure
| Time | 2026-04-26 11:32 |
|---|---|
| Airport | Vienna International Airport (LOWW) |
Arrival
| Time | N/A |
|---|---|
| Airport | Munich Airport (EDDM) |
| Time | Latitude | Longitude | Altitude | Speed | Heading |
|---|---|---|---|---|---|
| 2026-04-26 10:53 | 48.12082 | 16.56770 | 608 ft | 0 kts | 26° |
| 2026-04-26 11:21 | 48.12073 | 16.56763 | 619 ft | 3 kts | 26° |
| 2026-04-26 11:21 | 48.12055 | 16.56750 | 613 ft | 3 kts | 26° |
| 2026-04-26 11:22 | 48.12037 | 16.56736 | 625 ft | 3 kts | 26° |
| 2026-04-26 11:22 | 48.12021 | 16.56724 | 625 ft | 4 kts | 26° |
| 2026-04-26 11:25 | 48.12022 | 16.56725 | 608 ft | 0 kts | 32° |
| 2026-04-26 11:25 | 48.12023 | 16.56729 | 608 ft | 0 kts | 47° |
| 2026-04-26 11:25 | 48.12023 | 16.56732 | 608 ft | 1 kts | 58° |
| 2026-04-26 11:26 | 48.12023 | 16.56749 | 614 ft | 3 kts | 95° |
| 2026-04-26 11:26 | 48.12009 | 16.56811 | 611 ft | 11 kts | 112° |
| 2026-04-26 11:26 | 48.11978 | 16.56907 | 610 ft | 12 kts | 116° |
| 2026-04-26 11:26 | 48.11927 | 16.57063 | 612 ft | 20 kts | 116° |
| 2026-04-26 11:27 | 48.11847 | 16.57243 | 611 ft | 20 kts | 123° |
| 2026-04-26 11:27 | 48.11754 | 16.57374 | 611 ft | 18 kts | 166° |
| 2026-04-26 11:27 | 48.11629 | 16.57425 | 612 ft | 19 kts | 161° |
| 2026-04-26 11:27 | 48.11543 | 16.57556 | 620 ft | 18 kts | 121° |
| 2026-04-26 11:28 | 48.11424 | 16.57635 | 611 ft | 21 kts | 165° |
| 2026-04-26 11:28 | 48.11271 | 16.57697 | 608 ft | 25 kts | 165° |
| 2026-04-26 11:28 | 48.11092 | 16.57772 | 619 ft | 29 kts | 164° |
| 2026-04-26 11:28 | 48.10890 | 16.57863 | 617 ft | 32 kts | 163° |
| 2026-04-26 11:29 | 48.10667 | 16.57965 | 608 ft | 35 kts | 162° |
| 2026-04-26 11:29 | 48.10420 | 16.58060 | 613 ft | 38 kts | 164° |
| 2026-04-26 11:29 | 48.10161 | 16.58170 | 620 ft | 39 kts | 164° |
| 2026-04-26 11:29 | 48.09906 | 16.58275 | 612 ft | 38 kts | 165° |
| 2026-04-26 11:30 | 48.09657 | 16.58380 | 612 ft | 37 kts | 163° |
| 2026-04-26 11:30 | 48.09497 | 16.58451 | 613 ft | 36 kts | 164° |
| 2026-04-26 11:30 | 48.09181 | 16.58585 | 613 ft | 35 kts | 164° |
| 2026-04-26 11:30 | 48.08955 | 16.58681 | 611 ft | 34 kts | 163° |
| 2026-04-26 11:31 | 48.08801 | 16.58815 | 614 ft | 21 kts | 117° |
| 2026-04-26 11:31 | 48.08810 | 16.59011 | 617 ft | 19 kts | 58° |
| 2026-04-26 11:31 | 48.08909 | 16.59098 | 608 ft | 15 kts | 7° |
| 2026-04-26 11:31 | 48.09022 | 16.59065 | 614 ft | 24 kts | 343° |
| 2026-04-26 11:32 | 48.09352 | 16.58921 | 614 ft | 84 kts | 343° |
| 2026-04-26 11:32 | 48.10135 | 16.58595 | 642 ft | 145 kts | 345° |
| 2026-04-26 11:32 | 48.11204 | 16.58133 | 1268 ft | 168 kts | 343° |
| 2026-04-26 11:32 | 48.12346 | 16.57684 | 2404 ft | 179 kts | 341° |
| 2026-04-26 11:33 | 48.13645 | 16.57087 | 3089 ft | 212 kts | 335° |
| 2026-04-26 11:33 | 48.15119 | 16.55977 | 3201 ft | 265 kts | 323° |
| 2026-04-26 11:33 | 48.16411 | 16.53643 | 3398 ft | 318 kts | 295° |
| 2026-04-26 11:33 | 48.16811 | 16.51569 | 4357 ft | 0 kts | 281° |
| 2026-04-26 11:34 | 48.12083 | 16.56770 | 605 ft | 0 kts | 26° |